Time;durP1;ratioP1;P1;durP2;ratioP2;P2;SDS_P1;SDS_P2;PMS_P1;PMS_P2;Temp;Humidity;BMP_temperature;BMP_pressure;BME280_temperature;BME280_humidity;BME280_pressure;Samples;Min_cycle;Max_cycle;Signal;HPM_P1;HPM_P2
2022/03/31 00:00:16;;;;;;;80.60;42.60;;;8.40;87.30;;;;;;4955708;29;20034;-78
2022/03/31 00:02:41;;;;;;;89.25;46.65;;;8.40;87.20;;;;;;4955581;29;20392;-77
2022/03/31 00:05:07;;;;;;;92.53;47.97;;;8.40;87.30;;;;;;4954796;28;20019;-77
2022/03/31 00:07:33;;;;;;;87.03;47.50;;;8.40;87.10;;;;;;4955177;29;20054;-77
2022/03/31 00:09:59;;;;;;;85.28;45.70;;;8.30;87.60;;;;;;4955032;29;20019;-77
2022/03/31 00:12:25;;;;;;;95.90;51.30;;;8.40;87.60;;;;;;4938158;29;20170;-77
2022/03/31 00:14:50;;;;;;;99.43;51.75;;;8.30;87.40;;;;;;4955347;29;20026;-77
2022/03/31 00:17:16;;;;;;;92.53;49.20;;;8.20;87.70;;;;;;4955415;29;20043;-77
2022/03/31 00:19:41;;;;;;;82.18;46.72;;;8.20;87.90;;;;;;4955273;29;20078;-77
2022/03/31 00:22:07;;;;;;;93.07;46.97;;;8.20;88.00;;;;;;4955269;29;20034;-78
2022/03/31 00:24:32;;;;;;;95.47;50.03;;;8.20;87.90;;;;;;4955301;29;20030;-78
2022/03/31 00:26:58;;;;;;;97.53;50.65;;;8.30;88.00;;;;;;4955231;29;20027;-78
2022/03/31 00:29:24;;;;;;;89.72;48.70;;;8.20;88.10;;;;;;4937764;29;20078;-78
2022/03/31 00:31:49;;;;;;;99.95;51.88;;;8.30;88.20;;;;;;4955063;29;20654;-77
2022/03/31 00:34:15;;;;;;;96.82;52.05;;;8.30;88.00;;;;;;4955138;29;20019;-77
2022/03/31 00:36:41;;;;;;;92.13;48.17;;;8.30;87.80;;;;;;4955015;29;20072;-77
2022/03/31 00:41:50;;;;;;;100.75;52.97;;;8.20;88.10;;;;;;4955148;29;20466;-77
2022/03/31 00:44:16;;;;;;;90.13;48.63;;;8.20;88.30;;;;;;4956033;29;20035;-77
2022/03/31 00:46:50;;;;;;;100.25;52.17;;;8.10;88.60;;;;;;4955353;29;20047;-77
2022/03/31 00:49:17;;;;;;;98.60;51.08;;;8.20;88.60;;;;;;4955295;29;20487;-77
2022/03/31 00:51:42;;;;;;;90.57;49.00;;;8.10;88.90;;;;;;4956144;29;20027;-76
2022/03/31 00:54:08;;;;;;;94.28;48.28;;;8.10;89.00;;;;;;4955251;29;20118;-76
2022/03/31 00:56:35;;;;;;;92.00;47.92;;;8.20;88.90;;;;;;4954993;29;20023;-77
2022/03/31 00:59:04;;;;;;;95.15;48.25;;;8.30;88.70;;;;;;4955961;29;20111;-76
2022/03/31 01:01:31;;;;;;;100.03;48.70;;;8.30;88.50;;;;;;4937866;29;20098;-76
2022/03/31 01:03:58;;;;;;;91.30;46.75;;;8.40;88.20;;;;;;4955331;29;20024;-77
2022/03/31 01:06:24;;;;;;;84.35;44.83;;;8.40;88.00;;;;;;4956534;29;20027;-76
2022/03/31 01:08:49;;;;;;;83.00;44.38;;;8.40;87.80;;;;;;4966687;29;20027;-76
2022/03/31 01:11:15;;;;;;;86.25;45.63;;;8.50;88.00;;;;;;4957220;29;20030;-76
2022/03/31 01:13:40;;;;;;;77.40;40.85;;;8.50;87.70;;;;;;4954628;29;20455;-77
2022/03/31 01:16:06;;;;;;;94.47;48.00;;;8.50;87.70;;;;;;4954146;28;20055;-75
2022/03/31 01:18:32;;;;;;;87.57;45.83;;;8.50;87.70;;;;;;4954420;29;20051;-76
2022/03/31 01:20:57;;;;;;;97.05;49.10;;;8.40;87.60;;;;;;4954359;29;20050;-76
2022/03/31 01:23:24;;;;;;;99.38;49.20;;;8.40;87.70;;;;;;4954517;29;20031;-77
2022/03/31 01:25:49;;;;;;;85.85;43.80;;;8.30;88.00;;;;;;4954242;29;20031;-76
2022/03/31 01:28:15;;;;;;;86.40;43.88;;;8.40;88.10;;;;;;4954346;29;20031;-75
2022/03/31 01:30:40;;;;;;;82.43;43.65;;;8.40;88.00;;;;;;4954323;29;20027;-75
2022/03/31 01:33:06;;;;;;;81.70;43.45;;;8.40;87.90;;;;;;4954282;29;20054;-76
2022/03/31 01:35:31;;;;;;;82.40;43.45;;;8.40;87.80;;;;;;4954410;29;20392;-75
2022/03/31 01:37:57;;;;;;;94.10;46.10;;;8.50;87.80;;;;;;4954482;29;20023;-75
2022/03/31 01:40:23;;;;;;;77.88;41.85;;;8.40;87.30;;;;;;4954184;29;20027;-77
2022/03/31 01:42:49;;;;;;;87.88;46.20;;;8.40;87.50;;;;;;4954381;29;20085;-77
2022/03/31 01:45:17;;;;;;;77.82;41.03;;;8.40;87.60;;;;;;4954325;29;20140;-77
2022/03/31 01:47:43;;;;;;;77.05;41.10;;;8.30;87.90;;;;;;4954235;29;20641;-77
2022/03/31 01:50:09;;;;;;;81.55;41.88;;;8.30;87.90;;;;;;4954166;29;20468;-76
2022/03/31 01:52:36;;;;;;;77.47;38.85;;;8.30;87.90;;;;;;4954281;29;20059;-77
2022/03/31 01:55:02;;;;;;;85.25;44.00;;;8.40;88.00;;;;;;4954034;29;20026;-76
2022/03/31 01:57:28;;;;;;;77.22;39.67;;;8.40;88.00;;;;;;4954213;29;20031;-77
2022/03/31 01:59:54;;;;;;;82.68;42.33;;;8.40;87.80;;;;;;4954154;29;20436;-78
2022/03/31 02:02:20;;;;;;;78.40;40.05;;;8.50;87.80;;;;;;4954368;29;20429;-77
2022/03/31 02:04:46;;;;;;;74.22;39.17;;;8.50;87.50;;;;;;4953920;29;20487;-78
2022/03/31 02:07:12;;;;;;;76.88;40.30;;;8.50;87.40;;;;;;4953971;29;20035;-76
2022/03/31 02:09:38;;;;;;;79.75;39.72;;;8.50;87.50;;;;;;4953978;29;20083;-77
2022/03/31 02:12:04;;;;;;;73.72;39.08;;;8.60;87.40;;;;;;4954172;29;20638;-76
2022/03/31 02:14:30;;;;;;;74.35;40.03;;;8.50;87.40;;;;;;4954101;29;20035;-77
2022/03/31 02:16:56;;;;;;;80.05;41.25;;;8.50;87.30;;;;;;4953801;29;20099;-77
2022/03/31 02:19:24;;;;;;;85.60;43.45;;;8.50;87.20;;;;;;4954205;29;20027;-76
2022/03/31 02:21:50;;;;;;;79.85;42.22;;;8.50;87.50;;;;;;4953892;29;20023;-77
2022/03/31 02:24:15;;;;;;;84.78;42.83;;;8.30;88.40;;;;;;4953745;29;20500;-78
2022/03/31 02:26:41;;;;;;;75.85;37.95;;;8.30;88.30;;;;;;4953705;29;20099;-77
2022/03/31 02:29:07;;;;;;;69.90;36.33;;;8.20;88.30;;;;;;4955292;28;20019;-77
2022/03/31 02:31:32;;;;;;;73.05;37.35;;;8.30;88.70;;;;;;4957033;29;20165;-76
2022/03/31 02:33:58;;;;;;;78.15;39.35;;;8.30;88.70;;;;;;4957291;29;20059;-77
2022/03/31 02:36:26;;;;;;;71.75;34.88;;;8.30;88.60;;;;;;4957323;29;20053;-76
2022/03/31 02:38:52;;;;;;;73.38;37.67;;;8.40;88.50;;;;;;4957176;29;20082;-77
2022/03/31 02:41:19;;;;;;;69.88;36.10;;;8.40;88.20;;;;;;4956946;29;20424;-77
2022/03/31 02:43:44;;;;;;;80.63;40.90;;;8.40;87.80;;;;;;4957181;29;20020;-77
2022/03/31 02:46:10;;;;;;;83.70;40.28;;;8.40;87.50;;;;;;4956929;29;20395;-76
2022/03/31 02:48:36;;;;;;;76.70;35.47;;;8.40;87.70;;;;;;4956853;29;20031;-76
2022/03/31 02:51:02;;;;;;;82.32;33.13;;;8.40;88.00;;;;;;4956936;29;20034;-76
2022/03/31 02:56:11;;;;;;;62.13;31.25;;;8.20;89.10;;;;;;4956907;29;20400;-76
2022/03/31 02:58:37;;;;;;;53.53;29.33;;;8.20;89.20;;;;;;4956759;29;20023;-77
2022/03/31 03:01:02;;;;;;;53.42;28.40;;;8.20;89.40;;;;;;4956690;29;20031;-77
2022/03/31 03:03:29;;;;;;;56.17;28.30;;;8.10;89.50;;;;;;4956684;29;20106;-77
2022/03/31 03:05:55;;;;;;;58.00;30.35;;;8.20;89.60;;;;;;4956903;29;20384;-77
2022/03/31 03:08:20;;;;;;;64.80;32.63;;;8.20;89.70;;;;;;4939343;29;20035;-77
2022/03/31 03:10:46;;;;;;;63.45;33.08;;;8.20;89.80;;;;;;4956582;29;20027;-77
2022/03/31 03:13:13;;;;;;;69.25;33.17;;;8.10;90.10;;;;;;4956516;29;20076;-77
2022/03/31 03:15:38;;;;;;;81.38;32.53;;;8.10;90.10;;;;;;4939029;29;20054;-76
2022/03/31 03:18:04;;;;;;;59.97;31.60;;;8.00;90.20;;;;;;4961256;29;20452;-76
2022/03/31 03:20:30;;;;;;;58.40;29.20;;;8.00;90.80;;;;;;4957478;29;20524;-77
2022/03/31 03:22:56;;;;;;;57.17;29.77;;;8.00;90.90;;;;;;4957142;29;20027;-76
2022/03/31 03:25:23;;;;;;;56.25;29.75;;;7.90;90.90;;;;;;4956456;29;20034;-78
2022/03/31 03:27:50;;;;;;;60.60;30.40;;;8.00;90.90;;;;;;4956039;29;20118;-76
2022/03/31 03:30:18;;;;;;;50.13;27.15;;;8.00;90.70;;;;;;4956396;29;20110;-76
2022/03/31 03:32:45;;;;;;;53.15;27.67;;;8.10;90.60;;;;;;4956185;29;20051;-76
2022/03/31 03:35:11;;;;;;;48.83;26.17;;;8.10;90.60;;;;;;4956000;29;20369;-76
2022/03/31 03:37:39;;;;;;;55.00;28.48;;;8.10;90.60;;;;;;4938806;29;20118;-75
2022/03/31 03:40:06;;;;;;;51.17;27.08;;;8.20;90.30;;;;;;4955893;28;20399;-77
2022/03/31 03:42:32;;;;;;;48.55;27.50;;;8.20;90.10;;;;;;4955905;29;20059;-76
2022/03/31 03:44:59;;;;;;;50.58;26.30;;;8.20;89.80;;;;;;4956003;29;20087;-76
2022/03/31 03:47:25;;;;;;;60.88;30.13;;;8.20;89.80;;;;;;4955984;29;20122;-76
2022/03/31 03:49:51;;;;;;;55.85;29.13;;;8.20;89.80;;;;;;4955732;29;20031;-75
2022/03/31 03:52:17;;;;;;;48.22;26.55;;;8.10;89.80;;;;;;4955719;29;20049;-76
2022/03/31 03:54:43;;;;;;;54.90;29.60;;;8.20;90.00;;;;;;4955581;29;20027;-75
2022/03/31 03:57:08;;;;;;;49.55;27.42;;;8.20;89.80;;;;;;4955682;29;20031;-76
2022/03/31 03:59:34;;;;;;;61.03;31.00;;;8.20;89.60;;;;;;4955201;29;20027;-75
2022/03/31 04:02:00;;;;;;;63.15;32.17;;;8.20;89.50;;;;;;4955513;29;20132;-77
2022/03/31 04:04:27;;;;;;;52.60;28.65;;;8.10;89.40;;;;;;4955250;29;20375;-77
2022/03/31 04:06:52;;;;;;;56.25;29.23;;;8.20;89.60;;;;;;4955371;29;20043;-75
2022/03/31 04:09:18;;;;;;;50.55;27.65;;;8.20;89.40;;;;;;4955468;29;20392;-76
2022/03/31 04:11:43;;;;;;;59.45;31.17;;;8.20;89.30;;;;;;4955444;29;20368;-76
2022/03/31 04:14:09;;;;;;;56.28;28.80;;;8.20;88.80;;;;;;4955186;29;20459;-76
2022/03/31 04:16:35;;;;;;;46.17;26.38;;;8.10;88.90;;;;;;4955139;29;20435;-76
2022/03/31 04:19:00;;;;;;;49.63;26.75;;;8.00;89.00;;;;;;4955224;29;20039;-76
2022/03/31 04:21:26;;;;;;;54.30;27.50;;;8.10;89.20;;;;;;4955118;29;20028;-76
2022/03/31 04:23:51;;;;;;;51.35;26.38;;;8.10;89.00;;;;;;4937743;29;20042;-77
2022/03/31 04:26:17;;;;;;;57.10;29.40;;;8.10;89.00;;;;;;4937766;29;20032;-76
2022/03/31 04:28:42;;;;;;;58.40;27.98;;;8.10;89.00;;;;;;4955084;29;20023;-77
2022/03/31 04:31:08;;;;;;;54.28;28.45;;;8.10;89.00;;;;;;4954807;29;20047;-78
2022/03/31 04:33:34;;;;;;;57.08;29.48;;;8.10;89.00;;;;;;4954746;29;20023;-77
2022/03/31 04:35:59;;;;;;;65.47;33.38;;;8.20;89.10;;;;;;4954732;29;20038;-76
2022/03/31 04:38:25;;;;;;;60.95;30.65;;;8.20;89.10;;;;;;4954740;29;20027;-77
2022/03/31 04:40:50;;;;;;;51.53;27.52;;;8.20;89.10;;;;;;4954752;29;20075;-77
2022/03/31 04:43:16;;;;;;;53.17;28.13;;;8.30;89.00;;;;;;4954676;29;20023;-77
2022/03/31 04:45:41;;;;;;;58.30;30.27;;;8.30;88.90;;;;;;4954798;29;20375;-77
2022/03/31 04:48:07;;;;;;;70.95;35.05;;;8.30;88.80;;;;;;4954773;29;20400;-78
2022/03/31 04:50:33;;;;;;;55.22;28.00;;;8.30;88.40;;;;;;4954656;29;20051;-78
2022/03/31 04:52:59;;;;;;;52.47;27.70;;;8.30;88.50;;;;;;4954144;28;20178;-77
2022/03/31 04:55:25;;;;;;;53.28;28.00;;;8.30;88.40;;;;;;4954464;29;20023;-77
2022/03/31 04:57:51;;;;;;;69.38;32.63;;;8.30;88.40;;;;;;4954240;29;20475;-76
2022/03/31 05:00:17;;;;;;;74.22;34.33;;;8.30;88.30;;;;;;4954558;29;20031;-77
2022/03/31 05:02:43;;;;;;;69.30;33.13;;;8.20;88.60;;;;;;4954472;29;20443;-78
2022/03/31 05:05:08;;;;;;;65.68;31.75;;;8.10;88.90;;;;;;4954402;29;20580;-78
2022/03/31 05:07:34;;;;;;;62.35;29.75;;;8.10;89.20;;;;;;4954409;29;20559;-77
2022/03/31 05:10:00;;;;;;;62.40;31.10;;;8.10;89.30;;;;;;4954349;29;20106;-76
2022/03/31 05:12:25;;;;;;;67.32;33.33;;;8.10;89.30;;;;;;4937262;29;20031;-76
2022/03/31 05:14:51;;;;;;;57.80;30.60;;;8.20;89.20;;;;;;4954556;29;20027;-76
2022/03/31 05:17:17;;;;;;;62.35;32.05;;;8.20;89.00;;;;;;4937073;29;20055;-76
2022/03/31 05:19:42;;;;;;;67.63;33.38;;;8.20;88.70;;;;;;4936919;29;20098;-76
2022/03/31 05:22:08;;;;;;;67.68;35.25;;;8.30;88.60;;;;;;4936969;29;20031;-76
2022/03/31 05:24:33;;;;;;;60.00;31.25;;;8.30;88.60;;;;;;4953921;29;20098;-75
2022/03/31 05:26:59;;;;;;;61.42;31.92;;;8.30;88.40;;;;;;4936944;29;20095;-77
2022/03/31 05:29:25;;;;;;;60.10;31.35;;;8.30;88.50;;;;;;4953999;29;20174;-77
2022/03/31 05:31:51;;;;;;;59.17;29.58;;;8.20;88.40;;;;;;4953999;29;20451;-77
2022/03/31 05:34:16;;;;;;;52.20;27.67;;;8.20;88.40;;;;;;4936890;29;20380;-76
2022/03/31 05:36:42;;;;;;;56.63;30.70;;;8.20;88.30;;;;;;4936964;29;20034;-76
2022/03/31 05:39:08;;;;;;;55.53;29.40;;;8.30;88.40;;;;;;4954260;29;20062;-77
2022/03/31 05:41:34;;;;;;;50.78;27.65;;;8.30;89.00;;;;;;4954090;29;20062;-76
2022/03/31 05:44:00;;;;;;;51.03;26.85;;;8.30;88.10;;;;;;4954025;29;20015;-76
2022/03/31 05:46:26;;;;;;;55.97;28.88;;;8.40;88.00;;;;;;4936417;29;20039;-76
2022/03/31 05:48:52;;;;;;;53.33;29.77;;;8.40;87.80;;;;;;4954009;29;20082;-76
2022/03/31 05:51:19;;;;;;;49.38;26.85;;;8.40;87.60;;;;;;4953971;29;20089;-76
2022/03/31 05:53:44;;;;;;;55.83;30.40;;;8.50;87.50;;;;;;4936609;29;20038;-75
2022/03/31 05:56:10;;;;;;;49.67;27.63;;;8.50;87.30;;;;;;4954208;29;20480;-76
2022/03/31 05:58:36;;;;;;;50.10;27.40;;;8.50;87.20;;;;;;4936786;29;20384;-76
2022/03/31 06:01:02;;;;;;;45.92;25.83;;;8.50;87.20;;;;;;4954032;29;20487;-76
2022/03/31 06:03:28;;;;;;;46.83;26.95;;;8.50;87.20;;;;;;4959588;28;20118;-75
2022/03/31 06:05:53;;;;;;;41.38;24.58;;;8.60;87.00;;;;;;4947281;29;20058;-74
2022/03/31 06:08:19;;;;;;;43.33;24.83;;;8.60;87.40;;;;;;4940683;29;20031;-75
2022/03/31 06:10:45;;;;;;;47.63;25.75;;;8.60;86.70;;;;;;4957244;29;20075;-75
2022/03/31 06:13:11;;;;;;;46.92;27.88;;;8.60;86.50;;;;;;4940107;29;20035;-76
2022/03/31 06:15:37;;;;;;;47.65;26.98;;;8.70;86.50;;;;;;4956844;29;20043;-75
2022/03/31 06:18:04;;;;;;;44.85;24.55;;;8.70;86.30;;;;;;4939917;29;20124;-75
2022/03/31 06:20:34;;;;;;;56.60;29.58;;;8.70;86.20;;;;;;4939473;29;20031;-77
2022/03/31 06:23:01;;;;;;;48.20;25.25;;;8.70;86.00;;;;;;4939866;29;20054;-76
2022/03/31 06:25:27;;;;;;;51.05;28.98;;;8.70;85.80;;;;;;4957427;29;20028;-76
2022/03/31 06:27:52;;;;;;;54.35;30.13;;;8.70;85.80;;;;;;4956629;29;20094;-75
2022/03/31 06:30:19;;;;;;;51.33;28.42;;;8.70;85.60;;;;;;4957019;29;20027;-76
2022/03/31 06:32:46;;;;;;;44.63;25.23;;;8.70;85.60;;;;;;4939848;29;20078;-76
2022/03/31 06:35:14;;;;;;;48.83;26.17;;;8.70;85.40;;;;;;4940134;29;20392;-76
2022/03/31 06:37:46;;;;;;;54.00;29.05;;;8.80;85.30;;;;;;4939905;29;20031;-76
2022/03/31 06:40:13;;;;;;;50.13;26.33;;;8.80;85.10;;;;;;4939580;29;20055;-76
2022/03/31 06:42:40;;;;;;;50.95;29.35;;;8.90;85.00;;;;;;4939397;29;20483;-77
2022/03/31 06:45:12;;;;;;;54.38;29.92;;;8.90;84.80;;;;;;4940067;29;20031;-76
2022/03/31 06:47:39;;;;;;;54.28;29.83;;;8.90;85.20;;;;;;4939712;29;20035;-76
2022/03/31 06:50:05;;;;;;;50.50;27.60;;;9.00;84.30;;;;;;4939496;29;20031;-77
2022/03/31 06:52:31;;;;;;;45.38;24.02;;;9.00;84.30;;;;;;4939856;29;20531;-77
2022/03/31 06:54:57;;;;;;;43.67;24.27;;;9.10;84.10;;;;;;4939471;29;20152;-76
2022/03/31 06:57:23;;;;;;;41.28;23.90;;;9.20;83.70;;;;;;4923868;29;20027;-76
2022/03/31 06:59:49;;;;;;;45.97;26.38;;;9.30;83.30;;;;;;4939566;29;20117;-77
2022/03/31 07:02:15;;;;;;;52.22;29.70;;;9.30;82.90;;;;;;4939524;29;20432;-75
2022/03/31 07:04:40;;;;;;;50.70;30.15;;;9.40;83.10;;;;;;4939383;29;20030;-75
2022/03/31 07:07:06;;;;;;;50.47;28.63;;;9.30;83.30;;;;;;4939166;29;20118;-78
2022/03/31 07:09:31;;;;;;;42.15;26.17;;;9.30;84.00;;;;;;4939271;29;20078;-75
2022/03/31 07:11:57;;;;;;;48.22;28.73;;;9.10;84.50;;;;;;4939274;29;20495;-76
2022/03/31 07:14:22;;;;;;;51.72;30.83;;;9.10;84.60;;;;;;4938658;29;20023;-77
2022/03/31 07:16:48;;;;;;;50.42;28.85;;;9.00;84.80;;;;;;4938732;29;20132;-76
2022/03/31 07:19:14;;;;;;;47.90;17.05;;;8.90;85.40;;;;;;4939381;29;20027;-80
2022/03/31 07:21:40;;;;;;;44.42;23.38;;;9.00;90.00;;;;;;4939077;29;20027;-78
2022/03/31 07:24:06;;;;;;;39.17;22.30;;;9.40;88.80;;;;;;4939017;29;20030;-78
2022/03/31 07:26:31;;;;;;;41.78;25.60;;;9.90;87.10;;;;;;4938799;29;20089;-80
2022/03/31 07:28:57;;;;;;;41.65;26.25;;;10.20;83.80;;;;;;4939383;29;20126;-78
2022/03/31 07:31:28;;;;;;;37.00;23.17;;;10.50;81.30;;;;;;4938796;29;20107;-78
2022/03/31 07:33:56;;;;;;;38.97;23.38;;;10.80;80.10;;;;;;4939368;29;20038;-77
2022/03/31 07:36:21;;;;;;;36.15;22.35;;;11.00;78.50;;;;;;4938818;29;20494;-77
2022/03/31 07:38:47;;;;;;;44.72;25.60;;;11.00;77.90;;;;;;4938721;29;20035;-78
2022/03/31 07:41:14;;;;;;;43.45;23.95;;;11.10;76.00;;;;;;4938860;29;20035;-78
2022/03/31 07:43:40;;;;;;;40.20;24.25;;;11.10;76.50;;;;;;4938663;29;20035;-77
2022/03/31 07:46:06;;;;;;;39.28;23.88;;;11.20;75.90;;;;;;4938985;29;20122;-78
2022/03/31 07:48:32;;;;;;;39.75;25.63;;;11.20;75.90;;;;;;4940549;29;20462;-75
2022/03/31 07:50:59;;;;;;;39.97;24.83;;;11.00;74.80;;;;;;4939544;29;20027;-74
2022/03/31 07:53:33;;;;;;;38.03;24.45;;;10.70;76.00;;;;;;4938397;29;20034;-74
2022/03/31 07:56:03;;;;;;;45.90;27.10;;;10.40;77.60;;;;;;4938415;29;20079;-75
2022/03/31 07:58:29;;;;;;;46.60;28.25;;;10.00;79.00;;;;;;4938090;29;20038;-75
2022/03/31 08:00:55;;;;;;;47.92;29.27;;;9.80;80.40;;;;;;4938390;29;20020;-74
2022/03/31 08:03:22;;;;;;;46.00;27.73;;;9.60;81.40;;;;;;4938296;29;20047;-75
2022/03/31 08:05:49;;;;;;;42.67;24.92;;;9.50;82.30;;;;;;4937868;29;20042;-76
2022/03/31 08:08:15;;;;;;;41.80;25.25;;;9.50;81.70;;;;;;4938390;29;20031;-76
2022/03/31 08:10:41;;;;;;;44.53;25.73;;;9.50;81.70;;;;;;4954918;29;20123;-77
2022/03/31 08:13:08;;;;;;;44.80;27.35;;;9.40;81.90;;;;;;4954821;29;20030;-77
2022/03/31 08:15:34;;;;;;;48.90;26.85;;;9.50;81.90;;;;;;4937521;29;20094;-76
2022/03/31 08:18:00;;;;;;;48.42;27.65;;;9.50;81.90;;;;;;4937391;29;20464;-76
2022/03/31 08:20:26;;;;;;;40.97;24.17;;;9.60;81.60;;;;;;4937589;29;20073;-76
2022/03/31 08:22:52;;;;;;;45.17;26.23;;;9.60;81.20;;;;;;4937977;29;20063;-75
2022/03/31 08:25:18;;;;;;;42.33;25.25;;;9.60;81.40;;;;;;4937423;29;20070;-75
2022/03/31 08:27:45;;;;;;;48.92;24.98;;;9.70;81.50;;;;;;4936113;29;20031;-74
2022/03/31 08:30:19;;;;;;;41.60;23.27;;;9.90;81.30;;;;;;4937583;29;20034;-75
2022/03/31 08:32:46;;;;;;;42.90;24.23;;;10.20;80.60;;;;;;4937217;29;20027;-75
2022/03/31 08:35:14;;;;;;;41.30;23.95;;;10.40;79.50;;;;;;4937556;29;20038;-75
2022/03/31 08:37:41;;;;;;;35.10;21.52;;;10.30;78.10;;;;;;4937300;29;20043;-75
2022/03/31 08:40:09;;;;;;;35.55;20.80;;;10.30;78.50;;;;;;4937689;29;20114;-75
2022/03/31 08:42:35;;;;;;;37.42;20.02;;;10.40;78.00;;;;;;4937419;29;20031;-74
2022/03/31 08:45:01;;;;;;;36.33;19.10;;;10.30;76.30;;;;;;4937343;29;20033;-75
2022/03/31 08:47:27;;;;;;;36.15;20.45;;;10.30;75.10;;;;;;4937673;29;20180;-77
2022/03/31 08:49:57;;;;;;;35.30;19.90;;;10.10;75.70;;;;;;4937455;29;20085;-75
2022/03/31 08:52:23;;;;;;;36.60;21.05;;;10.10;75.70;;;;;;4937353;29;20082;-76
2022/03/31 08:54:49;;;;;;;43.10;23.15;;;10.20;75.80;;;;;;4937226;29;20023;-76
2022/03/31 08:57:17;;;;;;;42.13;23.92;;;10.20;76.40;;;;;;4937525;29;20038;-75
2022/03/31 08:59:43;;;;;;;39.38;23.02;;;10.20;78.10;;;;;;4937569;29;20091;-76
2022/03/31 09:02:09;;;;;;;40.28;22.60;;;10.30;77.70;;;;;;4921770;29;20511;-76
2022/03/31 09:04:35;;;;;;;45.00;24.80;;;10.40;77.20;;;;;;4937589;29;20483;-76
2022/03/31 09:07:09;;;;;;;41.10;23.27;;;10.30;77.60;;;;;;4938072;29;20075;-75
2022/03/31 09:09:48;;;;;;;40.63;23.73;;;10.40;77.60;;;;;;4937754;29;20055;-76
2022/03/31 09:12:14;;;;;;;46.55;26.52;;;10.50;77.20;;;;;;4937076;29;20094;-77
2022/03/31 09:14:39;;;;;;;40.97;23.40;;;10.50;76.40;;;;;;4954375;29;20023;-76
2022/03/31 09:17:13;;;;;;;43.58;24.15;;;10.40;76.40;;;;;;4936970;29;20043;-75
2022/03/31 09:19:39;;;;;;;38.90;23.02;;;10.50;76.00;;;;;;4936917;29;20066;-76
2022/03/31 09:22:05;;;;;;;35.75;21.95;;;10.60;75.90;;;;;;4937115;29;20031;-75
2022/03/31 09:24:31;;;;;;;35.30;21.15;;;10.60;75.30;;;;;;4954349;29;20122;-74
2022/03/31 09:26:58;;;;;;;35.67;20.48;;;10.70;74.70;;;;;;4937250;29;20122;-75
2022/03/31 09:29:26;;;;;;;33.45;19.63;;;10.80;74.00;;;;;;4936971;29;20047;-76
2022/03/31 09:31:53;;;;;;;37.88;21.52;;;11.00;73.90;;;;;;4937351;29;20023;-76
2022/03/31 09:34:19;;;;;;;40.97;22.92;;;11.20;72.80;;;;;;4937199;29;20034;-77
2022/03/31 09:36:51;;;;;;;37.42;20.65;;;11.30;71.60;;;;;;4936758;29;20027;-76
2022/03/31 09:39:18;;;;;;;36.63;21.02;;;11.40;70.90;;;;;;4957802;28;20023;-75
2022/03/31 09:41:50;;;;;;;35.25;20.65;;;11.60;71.10;;;;;;4957971;29;20031;-75
2022/03/31 09:44:22;;;;;;;37.30;20.85;;;11.90;70.80;;;;;;4940714;29;20027;-76
2022/03/31 09:46:48;;;;;;;35.75;21.55;;;12.00;69.40;;;;;;4940815;29;20035;-75
2022/03/31 09:49:22;;;;;;;34.17;19.77;;;12.30;67.70;;;;;;4957731;29;20021;-74
2022/03/31 09:51:57;;;;;;;35.33;20.05;;;12.60;67.50;;;;;;4957665;29;20028;-76
2022/03/31 09:54:26;;;;;;;32.78;19.85;;;12.60;65.80;;;;;;4940742;29;20024;-75
2022/03/31 09:56:52;;;;;;;37.72;18.63;;;12.70;65.80;;;;;;4940863;29;20031;-75
2022/03/31 09:59:18;;;;;;;36.85;20.48;;;12.80;63.50;;;;;;4940392;29;20023;-74
2022/03/31 10:01:45;;;;;;;37.08;19.92;;;12.60;63.60;;;;;;4940695;29;20031;-74
2022/03/31 10:04:13;;;;;;;31.92;18.35;;;12.40;64.50;;;;;;4940486;29;20027;-74
2022/03/31 10:06:40;;;;;;;32.92;17.92;;;12.50;65.50;;;;;;4940281;29;20134;-73
2022/03/31 10:09:09;;;;;;;34.03;18.63;;;13.00;65.00;;;;;;4940040;29;20484;-74
2022/03/31 10:11:49;;;;;;;30.80;16.98;;;13.40;64.70;;;;;;4957300;29;20035;-77
2022/03/31 10:14:37;;;;;;;33.00;16.42;;;13.90;61.80;;;;;;4940112;29;20102;-75
2022/03/31 10:17:10;;;;;;;28.75;14.70;;;14.50;57.30;;;;;;4939959;29;20055;-75
2022/03/31 10:19:39;;;;;;;28.77;14.85;;;14.70;53.70;;;;;;4939968;29;20088;-75
2022/03/31 10:24:41;;;;;;;28.00;13.00;;;15.00;53.50;;;;;;4940117;29;20024;-74
2022/03/31 10:25:10;;;;;;;22.50;12.73;;;15.30;52.20;;;;;;4956910;29;20480;-76
2022/03/31 10:27:45;;;;;;;24.00;12.40;;;15.50;49.90;;;;;;4939517;29;20050;-77
2022/03/31 10:30:15;;;;;;;29.42;13.30;;;15.60;49.30;;;;;;4939955;29;20102;-77
2022/03/31 10:32:52;;;;;;;24.92;11.50;;;15.60;48.30;;;;;;4940064;29;20511;-77
2022/03/31 10:35:30;;;;;;;26.30;13.00;;;15.80;48.70;;;;;;4956962;29;20032;-77
2022/03/31 10:37:58;;;;;;;32.90;13.68;;;16.10;48.10;;;;;;4939928;29;20023;-75
2022/03/31 10:40:33;;;;;;;23.60;12.55;;;16.00;45.70;;;;;;4939967;29;20031;-77
2022/03/31 10:42:59;;;;;;;26.33;12.82;;;16.20;46.70;;;;;;4940330;29;20117;-77
2022/03/31 10:45:37;;;;;;;25.52;12.60;;;16.50;45.90;;;;;;4939807;29;20119;-77
2022/03/31 10:48:21;;;;;;;26.92;14.32;;;16.90;46.20;;;;;;4939707;29;20054;-74
2022/03/31 10:50:59;;;;;;;31.23;14.15;;;16.90;46.60;;;;;;4955582;28;20472;-77
2022/03/31 10:53:29;;;;;;;24.52;13.45;;;16.40;45.90;;;;;;4960826;28;20137;-77
2022/03/31 10:55:55;;;;;;;25.30;12.95;;;16.10;47.10;;;;;;4957042;28;20030;-76
2022/03/31 10:58:28;;;;;;;29.52;13.98;;;15.90;47.60;;;;;;4958745;28;20039;-76
2022/03/31 11:00:58;;;;;;;25.58;13.38;;;15.60;46.90;;;;;;4975910;28;20081;-75
2022/03/31 11:03:24;;;;;;;24.58;12.52;;;15.30;47.20;;;;;;4958534;28;20023;-77
2022/03/31 11:05:51;;;;;;;29.90;14.02;;;15.00;49.50;;;;;;4958765;28;20019;-76
2022/03/31 11:08:20;;;;;;;27.52;15.20;;;14.50;53.90;;;;;;4964066;28;20045;-76
2022/03/31 11:10:49;;;;;;;26.80;14.90;;;13.60;58.70;;;;;;4959010;28;20023;-77
2022/03/31 11:13:16;;;;;;;30.70;14.45;;;13.30;61.10;;;;;;4958662;28;20466;-74
2022/03/31 11:15:46;;;;;;;29.52;15.25;;;13.30;60.90;;;;;;4958192;28;20054;-76
2022/03/31 11:18:11;;;;;;;30.52;14.93;;;13.20;61.10;;;;;;4958795;28;20407;-77
2022/03/31 11:20:37;;;;;;;24.98;14.23;;;13.30;61.30;;;;;;4958205;28;20034;-74
2022/03/31 11:23:06;;;;;;;26.45;15.15;;;13.40;61.20;;;;;;4958552;28;20416;-77
2022/03/31 11:25:33;;;;;;;29.98;15.85;;;13.50;61.80;;;;;;4958275;28;20031;-78
2022/03/31 11:28:09;;;;;;;29.73;15.85;;;13.50;62.40;;;;;;4958126;28;20070;-77
2022/03/31 11:30:35;;;;;;;29.15;15.02;;;13.40;62.30;;;;;;4958678;28;20027;-79
2022/03/31 11:33:02;;;;;;;29.85;16.55;;;13.20;63.10;;;;;;4958175;28;20033;-77
2022/03/31 11:35:29;;;;;;;27.08;14.80;;;13.10;62.90;;;;;;4957971;28;20029;-80
2022/03/31 11:38:02;;;;;;;34.13;15.65;;;13.00;62.50;;;;;;4958086;28;20483;-79
2022/03/31 11:40:34;;;;;;;26.80;15.15;;;12.90;64.00;;;;;;4958359;28;20026;-79
2022/03/31 11:43:02;;;;;;;31.13;14.80;;;12.90;63.10;;;;;;4957922;28;20030;-79
2022/03/31 11:45:36;;;;;;;26.80;14.77;;;12.50;63.30;;;;;;4958118;28;20023;-78
2022/03/31 11:48:08;;;;;;;34.55;15.07;;;12.50;63.60;;;;;;4958168;28;20085;-74
2022/03/31 11:50:36;;;;;;;27.85;15.35;;;12.50;62.60;;;;;;4958037;28;20030;-75
2022/03/31 11:53:03;;;;;;;30.75;13.82;;;12.60;63.40;;;;;;4958401;28;20030;-75
2022/03/31 11:55:29;;;;;;;29.27;14.10;;;12.70;61.60;;;;;;4957929;28;20058;-76
2022/03/31 11:58:00;;;;;;;27.13;13.13;;;12.70;61.40;;;;;;4958412;28;20078;-78
2022/03/31 12:00:28;;;;;;;30.10;15.15;;;12.80;61.40;;;;;;4957903;28;20031;-74
2022/03/31 12:03:05;;;;;;;34.33;15.07;;;12.90;61.40;;;;;;4958166;28;20034;-75
2022/03/31 12:05:31;;;;;;;26.20;14.02;;;12.70;62.20;;;;;;4958196;28;20023;-79
2022/03/31 12:07:59;;;;;;;30.70;13.50;;;12.40;61.60;;;;;;4958036;28;20043;-74
2022/03/31 12:10:26;;;;;;;30.75;14.48;;;12.10;63.10;;;;;;4975153;28;20085;-77
2022/03/31 12:12:55;;;;;;;30.55;14.02;;;11.80;66.60;;;;;;4957450;28;20483;-78
2022/03/31 12:15:28;;;;;;;26.83;12.65;;;11.60;69.30;;;;;;4974471;28;20476;-78
2022/03/31 12:18:04;;;;;;;24.92;10.88;;;11.40;69.70;;;;;;4957546;28;20026;-78
2022/03/31 12:20:30;;;;;;;;;;;11.20;69.40;;;;;;4958156;28;20027;-77
2022/03/31 12:22:56;;;;;;;36.03;12.57;;;11.00;69.30;;;;;;4957571;28;19938;-78
2022/03/31 12:25:33;;;;;;;30.85;13.38;;;10.90;70.70;;;;;;4974615;28;20019;-77
2022/03/31 12:28:07;;;;;;;25.88;13.43;;;10.90;71.70;;;;;;4957474;28;20129;-78
2022/03/31 12:30:45;;;;;;;31.60;17.60;;;10.80;72.70;;;;;;4957433;28;20058;-79
2022/03/31 12:33:36;;;;;;;35.10;19.35;;;10.70;74.30;;;;;;4957180;28;20022;-77
2022/03/31 12:36:07;;;;;;;34.03;17.20;;;10.70;75.50;;;;;;4957186;28;20031;-77
2022/03/31 12:38:44;;;;;;;33.67;15.88;;;10.70;77.90;;;;;;4974524;28;20383;-77